Data for 12/21/2015

Time Sea-Level Adjusted Pressure Absolute Pressure Temperature Relative Humidity Dew Point   
(mb) (inHg) (mb) (inHg) (C) (F) (%) (C) (F)
00:05 1010 29.83 839 24.78 -5.8 21.5 84 -8.1 17.3
00:10 1010 29.83 839 24.78 -5.9 21.4 83 -8.3 17.1
00:15 1010 29.83 839 24.78 -5.9 21.3 85 -8.1 17.5
00:20 1010 29.83 839 24.78 -6.1 21 81 -8.9 16
00:25 1010 29.83 839 24.78 -5.9 21.4 79 -8.9 15.9
00:30 1010 29.83 839 24.78 -5.5 22 78 -8.7 16.3
00:35 1010 29.83 839 24.78 -5.4 22.2 79 -8.5 16.7
00:40 1010 29.83 839 24.78 -5.5 22.1 77 -9 15.9
00:45 1010 29.83 839 24.78 -5.3 22.5 75 -9 15.8
00:50 1010 29.83 839 24.78 -4.9 23.2 73 -9 15.8
00:55 1010 29.83 839 24.78 -4.6 23.7 73 -8.8 16.1
01:00 1010 29.83 839 24.78 -4.6 23.8 73 -8.7 16.4
01:05 1010 29.83 839 24.78 -4.4 24 74 -8.3 17
01:10 1010 29.83 839 24.78 -4.5 23.8 75 -8.4 16.9
01:15 1010 29.83 839 24.78 -4.5 23.8 77 -8 17.5
01:20 1010 29.83 839 24.78 -4.9 23.2 76 -8.6 16.6
01:25 1010 29.83 839 24.78 -4.6 23.8 74 -8.6 16.6
01:30 1010 29.83 839 24.78 -3.5 25.6 70 -8.3 17.1
01:35 1010 29.83 839 24.78 -3.4 25.9 71 -7.9 17.8
01:40 1010 29.83 839 24.78 -4.3 24.3 75 -8 17.6
01:45 1010 29.83 839 24.78 -4.6 23.7 73 -8.8 16.1
01:50 1010 29.83 840 24.81 -4.2 24.5 71 -8.6 16.5
01:55 1010 29.83 840 24.81 -4 24.9 70 -8.6 16.6
02:00 1010 29.83 840 24.81 -3.8 25.2 71 -8.3 17
02:05 1010 29.83 840 24.81 -3.5 25.7 70 -8.2 17.3
02:10 1010 29.83 840 24.81 -3.1 26.5 65 -8.7 16.4
02:15 1010 29.83 839 24.78 -2.5 27.6 62 -8.8 16.2
02:20 1010 29.83 839 24.78 -2.2 28.1 61 -8.8 16.2
02:25 1010 29.83 839 24.78 -2.3 27.8 62 -8.6 16.6
02:30 1010 29.83 839 24.78 -2.5 27.5 62 -8.8 16.1
02:35 1010 29.83 839 24.78 -2.6 27.3 61 -9.2 15.4
02:40 1010 29.83 839 24.78 -2.5 27.5 56 -10.2 13.7
02:45 1010 29.83 839 24.78 -2.2 28.1 57 -9.5 14.8
02:50 1010 29.83 839 24.78 -2.4 27.7 54 -10.5 13
02:55 1010 29.83 839 24.78 -2.4 27.7 55 -10.3 13.4
03:00 1010 29.83 839 24.78 -2.3 27.8 54 -10.5 13.1
03:05 1010 29.83 839 24.78 -2 28.3 52 -10.7 12.7
03:10 1010 29.83 839 24.78 -1.7 28.9 52 -10.4 13.3
03:15 1010 29.83 839 24.78 -1.7 28.9 50 -10.8 12.5
03:20 1010 29.83 839 24.78 -1.6 29.2 49 -11 12.1
03:25 1010 29.83 839 24.78 -1.3 29.6 46 -11.4 11.4
03:30 1010 29.83 839 24.78 -1.3 29.6 47 -11.3 11.6
03:35 1010 29.83 839 24.78 -1.4 29.4 46 -11.6 11.1
03:40 1010 29.83 839 24.78 -1.6 29.1 46 -11.8 10.8
03:45 1010 29.83 839 24.78 -1.8 28.7 46 -11.9 10.7
03:50 1010 29.83 839 24.78 -2 28.5 47 -11.7 10.9
03:55 1010 29.83 839 24.78 -2.2 28.1 47 -12 10.5
04:00 1010 29.83 839 24.78 -2.2 28.1 45 -12.5 9.5
04:05 1010 29.83 839 24.78 -2.1 28.2 47 -11.9 10.6
04:10 1010 29.83 839 24.78 -2.3 27.9 47 -12 10.3
04:15 1010 29.83 839 24.78 -2.3 27.8 48 -11.9 10.6
04:20 1010 29.83 839 24.78 -2.5 27.4 49 -12 10.5
04:25 1010 29.83 839 24.78 -2.4 27.6 49 -11.7 10.9
04:30 1010 29.83 839 24.78 -2.5 27.4 51 -11.3 11.6
04:35 1010 29.83 839 24.78 -2.7 27.1 52 -11.2 11.8
04:40 1010 29.83 839 24.78 -2.7 27.1 52 -11.2 11.8
04:45 1010 29.83 839 24.78 -2.7 27.1 52 -11.2 11.8
04:50 1010 29.83 839 24.78 -2.7 27.2 50 -11.6 11.1
04:55 1010 29.83 839 24.78 -2.6 27.4 52 -11.2 11.9
05:00 1010 29.83 839 24.78 -2.7 27.2 52 -11.1 12
05:05 1010 29.83 839 24.78 -2.6 27.3 50 -11.6 11.1
05:10 1010 29.83 839 24.78 -2.3 27.9 49 -11.5 11.2
05:15 1010 29.83 839 24.78 -2.1 28.2 50 -11.2 11.8
05:20 1010 29.83 839 24.78 -2.3 27.8 51 -11.1 12.1
05:25 1010 29.83 839 24.78 -2.6 27.3 52 -11.2 11.8
05:30 1010 29.83 839 24.78 -2.6 27.2 52 -11.3 11.6
05:35 1010 29.83 839 24.78 -2.6 27.3 53 -11.1 12.1
05:40 1010 29.83 839 24.78 -2.7 27.2 53 -11.1 12.1
05:45 1010 29.83 839 24.78 -2.9 26.8 55 -10.8 12.5
05:50 1010 29.83 839 24.78 -3.1 26.3 55 -10.9 12.3
05:55 1010 29.83 839 24.78 -2.8 26.9 53 -11.2 11.8
06:00 1010 29.83 839 24.78 -2.4 27.7 51 -11.3 11.7
06:05 1010 29.83 839 24.78 -2.2 28.1 50 -11.2 11.8
06:10 1010 29.83 839 24.78 -2.2 28 49 -11.5 11.3
06:15 1010 29.83 839 24.78 -2.3 27.9 50 -11.5 11.4
06:20 1010 29.83 839 24.78 -2.3 27.8 48 -12 10.3
06:25 1010 29.83 839 24.78 -2.2 28.1 48 -11.9 10.6
06:30 1010 29.83 839 24.78 -2.1 28.2 46 -12.1 10.2
06:35 1010 29.83 839 24.78 -2.1 28.2 46 -12.4 9.8
06:40 1010 29.83 839 24.78 -2.1 28.2 46 -12.3 9.9
06:45 1010 29.83 839 24.78 -2.2 28.1 46 -12.4 9.7
06:50 1010 29.83 839 24.78 -2.2 28.1 46 -12.2 10
06:55 1010 29.83 839 24.78 -2.2 28 46 -12.4 9.6
07:00 1010 29.83 839 24.78 -2.3 28 45 -12.6 9.3
07:05 1010 29.83 839 24.78 -2.3 27.9 45 -12.6 9.3
07:10 1010 29.83 839 24.78 -2.4 27.7 46 -12.6 9.3
07:15 1010 29.83 839 24.78 -2.4 27.6 45 -12.8 8.9
07:20 1010 29.83 839 24.78 -2.4 27.8 44 -13 8.6
07:25 1010 29.83 839 24.78 -2.5 27.4 46 -12.7 9.2
07:30 1010 29.83 839 24.78 -2.7 27.2 46 -12.7 9.2
07:35 1010 29.83 839 24.78 -2.8 27 47 -12.7 9.1
07:40 1010 29.83 839 24.78 -2.9 26.7 47 -12.8 8.9
07:45 1010 29.83 839 24.78 -3 26.6 46 -13 8.7
07:50 1010 29.83 839 24.78 -3.1 26.5 46 -13.1 8.5
07:55 1010 29.83 839 24.78 -3.1 26.4 47 -13 8.5
08:00 1010 29.83 839 24.78 -3 26.5 46 -13.2 8.3
08:05 1010 29.83 839 24.78 -3.1 26.4 46 -13.3 8.1
08:10 1010 29.83 839 24.78 -2.9 26.8 43 -13.8 7.2
08:15 1010 29.83 839 24.78 -2.4 27.7 43 -13.4 7.9
08:20 1010 29.83 839 24.78 -2.3 27.8 42 -13.7 7.4
08:25 1010 29.83 839 24.78 -2.1 28.2 43 -13.2 8.3
08:30 1010 29.83 839 24.78 -2.1 28.2 41 -13.7 7.4
08:35 1010 29.83 839 24.78 -2 28.3 41 -13.7 7.4
08:40 1009 29.8 839 24.78 -2 28.3 40 -13.8 7.2
08:45 1009 29.8 839 24.78 -2.2 28.1 42 -13.5 7.7
08:50 1009 29.8 839 24.78 -2.3 27.8 42 -13.5 7.6
08:55 1009 29.8 839 24.78 -2.5 27.5 43 -13.6 7.6
09:00 1009 29.8 838 24.75 -2.6 27.2 43 -13.6 7.5
09:05 1009 29.8 838 24.75 -2.7 27.1 43 -13.5 7.7
09:10 1009 29.8 838 24.75 -2.8 26.9 44 -13.5 7.7
09:15 1009 29.8 838 24.75 -3.1 26.5 45 -13.3 8
09:20 1009 29.8 838 24.75 -3.3 26.1 46 -13.3 8.1
09:25 1009 29.8 838 24.75 -3.6 25.5 49 -12.7 9.1
09:30 1009 29.8 838 24.75 -4.4 24.1 54 -12.4 9.7
09:35 1009 29.8 838 24.75 -4.6 23.8 54 -12.5 9.6
09:40 1009 29.8 838 24.75 -4.4 24.1 55 -12.2 10
09:45 1009 29.8 838 24.75 -4.3 24.2 55 -12 10.4
09:50 1009 29.8 838 24.75 -4.3 24.3 56 -11.7 10.9
09:55 1009 29.8 838 24.75 -4.3 24.2 58 -11.5 11.4
10:00 1009 29.8 838 24.75 -4.3 24.3 58 -11.5 11.3
10:05 1009 29.8 838 24.75 -4.3 24.3 58 -11.3 11.7
10:10 1009 29.8 838 24.75 -4.3 24.2 57 -11.6 11.2
10:15 1009 29.8 838 24.75 -4.2 24.4 58 -11.4 11.5
10:20 1009 29.8 838 24.75 -4.1 24.6 57 -11.4 11.5
10:25 1009 29.8 838 24.75 -4 24.9 57 -11.3 11.6
10:30 1009 29.8 838 24.75 -3.8 25.1 58 -10.9 12.4
10:35 1009 29.8 838 24.75 -3.8 25.2 57 -11 12.1
10:40 1009 29.8 838 24.75 -3.6 25.6 56 -11.2 11.8
10:45 1009 29.8 838 24.75 -3.3 26.1 55 -11 12.1
10:50 1009 29.8 838 24.75 -3.2 26.3 56 -10.7 12.7
10:55 1009 29.8 838 24.75 -2.8 27 50 -11.8 10.8
11:00 1008 29.77 838 24.75 -2 28.3 48 -11.5 11.3
11:05 1008 29.77 837 24.72 -1.8 28.8 44 -12.4 9.7
11:10 1008 29.77 837 24.72 -1.4 29.5 46 -11.7 10.9
11:15 1008 29.77 837 24.72 -1.3 29.6 47 -11.1 12
11:20 1008 29.77 837 24.72 -1.4 29.5 47 -11.3 11.7
11:25 1008 29.77 837 24.72 -1.6 29.1 49 -10.9 12.3
11:30 1008 29.77 837 24.72 -1.6 29.1 48 -11.3 11.7
11:35 1008 29.77 837 24.72 -1.3 29.7 44 -12.1 10.2
11:40 1008 29.77 837 24.72 -1 30.2 41 -12.8 9
11:45 1008 29.77 837 24.72 -0.7 30.8 41 -12.3 9.9
11:50 1008 29.77 837 24.72 -0.5 31.1 41 -12.1 10.3
11:55 1008 29.77 837 24.72 -0.4 31.3 40 -12.3 9.9
12:00 1008 29.77 837 24.72 -0.3 31.4 43 -11.4 11.5
12:05 1008 29.77 837 24.72 -0.4 31.2 44 -11.1 12
12:10 1007 29.74 837 24.72 -0.4 31.2 44 -11.3 11.7
12:15 1007 29.74 837 24.72 -0.2 31.7 42 -11.7 10.9
12:20 1007 29.74 836 24.69 -0.3 31.5 44 -11.2 11.8
12:25 1007 29.74 836 24.69 -0.4 31.2 45 -11 12.2
12:30 1007 29.74 836 24.69 -0.6 30.9 45 -11.3 11.7
12:35 1007 29.74 836 24.69 -0.6 30.8 45 -11.3 11.7
12:40 1007 29.74 836 24.69 -0.6 30.9 45 -11.2 11.8
12:45 1006 29.71 836 24.69 -0.5 31.1 47 -10.6 13
12:50 1006 29.71 835 24.66 -0.4 31.3 47 -10.5 13
12:55 1006 29.71 835 24.66 -0.6 30.9 47 -10.5 13.1
13:00 1006 29.71 835 24.66 -0.9 30.4 48 -10.5 13.1
13:05 1005 29.68 835 24.66 -0.8 30.6 48 -10.5 13.2
13:10 1005 29.68 834 24.63 -0.4 31.2 50 -9.7 14.6
13:15 1005 29.68 834 24.63 -0.4 31.3 50 -9.5 14.9
13:20 1005 29.68 834 24.63 -0.7 30.7 50 -10 14
13:25 1004 29.65 834 24.63 -0.8 30.5 51 -9.6 14.7
13:30 1004 29.65 833 24.6 -0.7 30.7 52 -9.4 15.1
13:35 1004 29.65 833 24.6 -0.6 31 51 -9.5 14.9
13:40 1004 29.65 833 24.6 -0.4 31.3 48 -10.1 13.8
13:45 1004 29.65 833 24.6 -0.4 31.3 49 -9.9 14.1
13:50 1004 29.65 833 24.6 -0.3 31.4 49 -9.7 14.5
13:55 1004 29.65 833 24.6 -0.2 31.7 49 -9.6 14.8
14:00 1003 29.62 833 24.6 -0.2 31.6 49 -9.8 14.4
14:05 1003 29.62 833 24.6 -0.3 31.5 49 -9.8 14.4
14:10 1003 29.62 832 24.57 -0.2 31.7 48 -10 14
14:15 1003 29.62 832 24.57 -0.2 31.7 48 -9.9 14.2
14:20 1003 29.62 832 24.57 -0.2 31.6 50 -9.5 14.9
14:25 1003 29.62 832 24.57 -0.2 31.7 49 -9.5 14.8
14:30 1002 29.59 832 24.57 0.2 32.4 49 -9.3 15.3
14:35 1002 29.59 831 24.54 -0.1 31.8 50 -9.2 15.4
14:40 1002 29.59 831 24.54 -0.2 31.6 53 -8.5 16.6
14:45 1002 29.59 831 24.54 -0.2 31.6 52 -8.9 16
14:50 1002 29.59 831 24.54 -0.3 31.4 53 -8.9 16
14:55 1002 29.59 831 24.54 -0.4 31.3 50 -9.5 14.9
15:00 1001 29.56 831 24.54 -0.3 31.4 51 -9.2 15.4
15:05 1001 29.56 831 24.54 0.1 32.2 48 -9.5 14.9
15:10 1001 29.56 830 24.51 0.9 33.7 47 -9.3 15.3
15:15 1001 29.56 830 24.51 1.4 34.5 47 -8.7 16.4
15:20 1001 29.56 830 24.51 1.5 34.7 45 -9.3 15.3
15:25 1001 29.56 830 24.51 1.5 34.7 48 -8.4 16.9
15:30 1001 29.56 830 24.51 1.5 34.8 45 -9 15.7
15:35 1000 29.53 830 24.51 1.6 34.9 47 -8.6 16.5
15:40 1000 29.53 830 24.51 1.7 35 46 -8.6 16.4
15:45 1000 29.53 829 24.48 1.5 34.7 46 -8.9 16
15:50 1000 29.53 829 24.48 1.4 34.6 48 -8.5 16.7
15:55 1000 29.53 829 24.48 1.3 34.4 47 -8.7 16.3
16:00 1000 29.53 829 24.48 1.4 34.6 48 -8.4 16.8
16:05 1000 29.53 829 24.48 1.4 34.5 48 -8.5 16.7
16:10 1000 29.53 829 24.48 1.2 34.2 48 -8.5 16.7
16:15 999 29.5 829 24.48 1.3 34.3 48 -8.4 16.8
16:20 999 29.5 828 24.45 1.1 34.1 49 -8.4 16.9
16:25 999 29.5 828 24.45 1 33.8 47 -9 15.9
16:30 999 29.5 828 24.45 1.2 34.2 49 -8.4 16.9
16:35 999 29.5 828 24.45 1.1 34 49 -8.4 16.9
16:40 999 29.5 828 24.45 1.1 33.9 50 -8.3 17.1
16:45 999 29.5 828 24.45 1 33.8 49 -8.6 16.5
16:50 999 29.5 828 24.45 1 33.8 50 -8.2 17.3
16:55 998 29.47 828 24.45 1 33.8 53 -7.6 18.4
17:00 998 29.47 828 24.45 1 33.8 50 -8.2 17.2
17:05 998 29.47 827 24.42 0.9 33.6 51 -8.3 17.1
17:10 998 29.47 827 24.42 0.9 33.7 48 -8.8 16.2
17:15 998 29.47 827 24.42 0.8 33.4 54 -7.5 18.5
17:20 998 29.47 827 24.42 0.2 32.3 57 -7.4 18.6
17:25 998 29.47 827 24.42 -0 31.9 56 -7.9 17.9
17:30 998 29.47 827 24.42 -0 31.9 59 -7.1 19.2
17:35 998 29.47 827 24.42 -0.2 31.6 60 -7 19.3
17:40 997 29.44 827 24.42 -0.3 31.4 61 -7.1 19.3
17:45 997 29.44 827 24.42 -0.3 31.4 61 -7 19.4
17:50 997 29.44 826 24.39 -0.4 31.3 62 -6.9 19.7
17:55 997 29.44 826 24.39 -0.4 31.2 61 -7 19.4
18:00 997 29.44 826 24.39 -0.5 31.2 62 -6.8 19.8
18:05 997 29.44 826 24.39 -0.4 31.2 63 -6.6 20
18:10 997 29.44 826 24.39 -0.4 31.3 63 -6.6 20.2
18:15 997 29.44 826 24.39 -0.5 31.1 65 -6.4 20.5
18:20 997 29.44 826 24.39 -0.5 31 65 -6.3 20.6
18:25 996 29.41 826 24.39 -0.5 31.1 65 -6.3 20.6
18:30 996 29.41 826 24.39 -0.2 31.7 62 -6.6 20.1
18:35 996 29.41 826 24.39 -0.2 31.7 64 -6.3 20.7
18:40 996 29.41 825 24.36 -0.3 31.5 62 -6.7 20
18:45 996 29.41 826 24.39 -0.2 31.7 63 -6.4 20.5
18:50 996 29.41 825 24.36 -0.3 31.5 64 -6.4 20.6
18:55 996 29.41 825 24.36 -0.3 31.5 64 -6.2 20.8
19:00 996 29.41 825 24.36 -0.4 31.4 64 -6.3 20.7
19:05 996 29.41 825 24.36 -0.3 31.5 64 -6.4 20.6
19:10 996 29.41 825 24.36 -0.1 31.8 61 -6.7 19.9
19:15 996 29.41 825 24.36 0.3 32.6 61 -6.3 20.6
19:20 996 29.41 825 24.36 0.3 32.6 60 -6.5 20.3
19:25 996 29.41 825 24.36 0.6 33 59 -6.6 20.1
19:30 996 29.41 825 24.36 0.7 33.3 60 -6.2 20.9
19:35 996 29.41 825 24.36 0.2 32.4 63 -5.9 21.3
19:40 995 29.38 825 24.36 -0 32 62 -6.3 20.6
19:45 995 29.38 825 24.36 0 32 63 -6.2 20.9
19:50 995 29.38 824 24.33 -0.1 31.9 61 -6.7 20
19:55 995 29.38 824 24.33 -0.1 31.9 62 -6.4 20.4
20:00 995 29.38 824 24.33 -0.4 31.4 64 -6.3 20.7
20:05 995 29.38 824 24.33 -0.5 31 64 -6.4 20.4
20:10 995 29.38 824 24.33 -0.6 30.9 65 -6.5 20.4
20:15 995 29.38 824 24.33 -0.6 31 63 -6.7 19.9
20:20 995 29.38 824 24.33 -0.5 31.2 63 -6.6 20.2
20:25 995 29.38 824 24.33 -0.5 31.1 63 -6.7 19.9
20:30 995 29.38 824 24.33 -0.4 31.2 63 -6.6 20.1
20:35 995 29.38 824 24.33 -0.3 31.4 62 -6.7 20
20:40 995 29.38 824 24.33 -0.3 31.5 62 -6.7 20
20:45 995 29.38 824 24.33 -0.1 31.7 60 -7 19.5
20:50 995 29.38 824 24.33 0.1 32.2 60 -6.7 20
20:55 995 29.38 824 24.33 -0.1 31.9 63 -6.2 20.8
21:00 995 29.38 824 24.33 -0.5 31.1 65 -6.3 20.7
21:05 994 29.35 824 24.33 -0.7 30.8 66 -6.2 20.8
21:10 994 29.35 824 24.33 -0.8 30.5 66 -6.3 20.6
21:15 994 29.35 824 24.33 -0.9 30.4 66 -6.4 20.4
21:20 994 29.35 824 24.33 -0.8 30.5 67 -6.3 20.7
21:25 994 29.35 824 24.33 -0.9 30.4 65 -6.6 20.1
21:30 994 29.35 824 24.33 -0.7 30.7 66 -6.4 20.5
21:35 994 29.35 823 24.3 -0.7 30.8 65 -6.4 20.4
21:40 994 29.35 823 24.3 -0.5 31 65 -6.3 20.7
21:45 994 29.35 823 24.3 -0.6 31 66 -6.2 20.9
21:50 994 29.35 823 24.3 -0.7 30.8 66 -6.3 20.7
21:55 994 29.35 823 24.3 -0.7 30.8 66 -6.3 20.7
22:00 994 29.35 823 24.3 -0.6 30.9 65 -6.4 20.5
22:05 994 29.35 824 24.33 -0.5 31.1 65 -6.4 20.5
22:10 994 29.35 824 24.33 -0.4 31.4 66 -6 21.2
22:15 995 29.38 824 24.33 -0.3 31.5 66 -5.9 21.3
22:20 995 29.38 824 24.33 -0.2 31.7 64 -6.3 20.7
22:25 995 29.38 824 24.33 0 32 64 -6 21.2
22:30 995 29.38 824 24.33 -0.2 31.6 68 -5.5 22.1
22:35 995 29.38 824 24.33 -0.7 30.7 72 -5.2 22.6
22:40 995 29.38 824 24.33 -1.2 29.8 81 -4 24.7
22:45 995 29.38 824 24.33 -0.9 30.4 82 -3.5 25.6
22:50 995 29.38 824 24.33 -0.9 30.4 84 -3.2 26.2
22:55 995 29.38 824 24.33 -0.7 30.7 84 -3.1 26.4
23:00 995 29.38 824 24.33 -0.4 31.2 82 -3.2 26.3
23:05 995 29.38 824 24.33 -1 30.1 83 -3.5 25.6
23:10 995 29.38 824 24.33 -1.7 29 88 -3.5 25.8
23:15 995 29.38 824 24.33 -1.5 29.2 89 -3.1 26.4
23:20 995 29.38 824 24.33 -1.4 29.4 91 -2.8 27
23:25 995 29.38 824 24.33 -1.4 29.5 91 -2.7 27.2
23:30 995 29.38 824 24.33 -1.4 29.4 92 -2.5 27.5
23:35 995 29.38 824 24.33 -1.3 29.7 92 -2.4 27.7
23:40 995 29.38 824 24.33 -1.5 29.3 93 -2.5 27.4
23:45 995 29.38 824 24.33 -1.4 29.4 93 -2.4 27.6
23:50 995 29.38 824 24.33 -1.4 29.5 93 -2.4 27.7
23:55 995 29.38 824 24.33 -1.3 29.6 93 -2.3 27.9
24:00 995 29.38 824 24.33 -1.3 29.6 93 -2.3 27.9